sensor_id;sensor_type;location;lat;lon;timestamp;P1;durP1;ratioP1;P2;durP2;ratioP2
24096;SDS011;12275;48.550;12.132;2023-11-21T00:01:31;1193.93;;;999.90;;
24096;SDS011;12275;48.550;12.132;2023-11-21T00:04:04;1197.57;;;999.90;;
24096;SDS011;12275;48.550;12.132;2023-11-21T00:06:32;1201.65;;;999.90;;
24096;SDS011;12275;48.550;12.132;2023-11-21T00:08:59;1197.97;;;999.90;;
24096;SDS011;12275;48.550;12.132;2023-11-21T00:11:25;1207.63;;;999.90;;
24096;SDS011;12275;48.550;12.132;2023-11-21T00:13:51;1209.28;;;999.90;;
24096;SDS011;12275;48.550;12.132;2023-11-21T00:16:17;1205.63;;;999.90;;
24096;SDS011;12275;48.550;12.132;2023-11-21T00:18:47;1191.40;;;999.90;;
24096;SDS011;12275;48.550;12.132;2023-11-21T00:21:19;1194.43;;;999.90;;
24096;SDS011;12275;48.550;12.132;2023-11-21T00:23:52;1203.85;;;999.90;;
24096;SDS011;12275;48.550;12.132;2023-11-21T00:26:18;1197.25;;;999.90;;
24096;SDS011;12275;48.550;12.132;2023-11-21T00:28:47;1215.78;;;999.90;;
24096;SDS011;12275;48.550;12.132;2023-11-21T00:34:28;1203.57;;;999.90;;
24096;SDS011;12275;48.550;12.132;2023-11-21T00:40:01;1198.45;;;999.90;;
24096;SDS011;12275;48.550;12.132;2023-11-21T01:10:22;1201.00;;;999.90;;
24096;SDS011;12275;48.550;12.132;2023-11-21T01:12:50;1220.97;;;999.90;;
24096;SDS011;12275;48.550;12.132;2023-11-21T01:15:16;1216.07;;;999.90;;
24096;SDS011;12275;48.550;12.132;2023-11-21T01:17:51;1200.30;;;999.90;;
24096;SDS011;12275;48.550;12.132;2023-11-21T01:23:19;1218.70;;;999.90;;
24096;SDS011;12275;48.550;12.132;2023-11-21T01:25:46;1206.40;;;999.90;;
24096;SDS011;12275;48.550;12.132;2023-11-21T01:28:19;1208.53;;;999.90;;
24096;SDS011;12275;48.550;12.132;2023-11-21T01:30:45;1205.77;;;999.90;;
24096;SDS011;12275;48.550;12.132;2023-11-21T01:33:23;1201.88;;;999.90;;
24096;SDS011;12275;48.550;12.132;2023-11-21T01:35:52;1195.75;;;999.90;;
24096;SDS011;12275;48.550;12.132;2023-11-21T01:38:27;1210.57;;;999.90;;
24096;SDS011;12275;48.550;12.132;2023-11-21T01:40:57;1210.05;;;999.90;;
24096;SDS011;12275;48.550;12.132;2023-11-21T01:43:52;1206.65;;;999.90;;
24096;SDS011;12275;48.550;12.132;2023-11-21T01:46:23;1206.32;;;999.90;;
24096;SDS011;12275;48.550;12.132;2023-11-21T01:48:52;1203.55;;;999.90;;
24096;SDS011;12275;48.550;12.132;2023-11-21T01:51:24;1210.00;;;999.90;;
24096;SDS011;12275;48.550;12.132;2023-11-21T01:53:51;1197.10;;;999.90;;
24096;SDS011;12275;48.550;12.132;2023-11-21T01:56:17;1200.95;;;999.90;;
24096;SDS011;12275;48.550;12.132;2023-11-21T01:58:44;1210.13;;;999.90;;
24096;SDS011;12275;48.550;12.132;2023-11-21T02:01:11;1215.07;;;999.90;;
24096;SDS011;12275;48.550;12.132;2023-11-21T02:03:39;1196.25;;;999.90;;
24096;SDS011;12275;48.550;12.132;2023-11-21T02:06:05;1205.47;;;999.90;;
24096;SDS011;12275;48.550;12.132;2023-11-21T02:08:34;1206.40;;;999.90;;
24096;SDS011;12275;48.550;12.132;2023-11-21T02:11:04;1177.60;;;999.90;;
24096;SDS011;12275;48.550;12.132;2023-11-21T02:13:31;1212.63;;;999.90;;
24096;SDS011;12275;48.550;12.132;2023-11-21T02:16:00;1212.03;;;999.90;;
24096;SDS011;12275;48.550;12.132;2023-11-21T02:18:26;1205.45;;;999.90;;
24096;SDS011;12275;48.550;12.132;2023-11-21T02:20:56;1210.07;;;999.90;;
24096;SDS011;12275;48.550;12.132;2023-11-21T02:23:35;1208.93;;;999.90;;
24096;SDS011;12275;48.550;12.132;2023-11-21T02:26:11;1197.85;;;999.90;;
24096;SDS011;12275;48.550;12.132;2023-11-21T02:28:38;1201.40;;;999.90;;
24096;SDS011;12275;48.550;12.132;2023-11-21T02:31:05;1202.82;;;999.90;;
24096;SDS011;12275;48.550;12.132;2023-11-21T02:33:32;1202.38;;;999.90;;
24096;SDS011;12275;48.550;12.132;2023-11-21T02:35:59;1203.75;;;999.90;;
24096;SDS011;12275;48.550;12.132;2023-11-21T02:38:25;1197.53;;;999.90;;
24096;SDS011;12275;48.550;12.132;2023-11-21T02:40:51;1199.68;;;999.90;;
24096;SDS011;12275;48.550;12.132;2023-11-21T02:43:17;1195.32;;;999.90;;
24096;SDS011;12275;48.550;12.132;2023-11-21T02:45:43;1201.75;;;999.90;;
24096;SDS011;12275;48.550;12.132;2023-11-21T02:48:09;1199.78;;;999.90;;
24096;SDS011;12275;48.550;12.132;2023-11-21T02:50:35;1206.47;;;999.90;;
24096;SDS011;12275;48.550;12.132;2023-11-21T02:53:02;1198.97;;;999.90;;
24096;SDS011;12275;48.550;12.132;2023-11-21T02:55:29;1200.72;;;999.90;;
24096;SDS011;12275;48.550;12.132;2023-11-21T02:57:55;1209.30;;;999.90;;
24096;SDS011;12275;48.550;12.132;2023-11-21T03:00:21;1208.37;;;999.90;;
24096;SDS011;12275;48.550;12.132;2023-11-21T03:02:49;1195.40;;;999.90;;
24096;SDS011;12275;48.550;12.132;2023-11-21T03:05:15;1210.40;;;999.90;;
24096;SDS011;12275;48.550;12.132;2023-11-21T03:07:41;1217.78;;;999.90;;
24096;SDS011;12275;48.550;12.132;2023-11-21T03:10:08;1212.65;;;999.90;;
24096;SDS011;12275;48.550;12.132;2023-11-21T03:12:35;1212.85;;;999.90;;
24096;SDS011;12275;48.550;12.132;2023-11-21T03:15:01;1212.45;;;999.90;;
24096;SDS011;12275;48.550;12.132;2023-11-21T03:17:28;1208.15;;;999.90;;
24096;SDS011;12275;48.550;12.132;2023-11-21T03:19:54;1216.40;;;999.90;;
24096;SDS011;12275;48.550;12.132;2023-11-21T03:22:22;1211.93;;;999.90;;
24096;SDS011;12275;48.550;12.132;2023-11-21T03:24:48;1207.67;;;999.90;;
24096;SDS011;12275;48.550;12.132;2023-11-21T03:27:14;1213.87;;;999.90;;
24096;SDS011;12275;48.550;12.132;2023-11-21T03:29:40;1215.93;;;999.90;;
24096;SDS011;12275;48.550;12.132;2023-11-21T03:32:06;1210.18;;;999.90;;
24096;SDS011;12275;48.550;12.132;2023-11-21T03:34:33;1208.55;;;999.90;;
24096;SDS011;12275;48.550;12.132;2023-11-21T03:36:59;1216.40;;;999.90;;
24096;SDS011;12275;48.550;12.132;2023-11-21T03:39:25;1214.35;;;999.90;;
24096;SDS011;12275;48.550;12.132;2023-11-21T03:41:51;1204.63;;;999.90;;
24096;SDS011;12275;48.550;12.132;2023-11-21T03:44:17;1208.00;;;999.90;;
24096;SDS011;12275;48.550;12.132;2023-11-21T03:46:43;1202.25;;;999.90;;
24096;SDS011;12275;48.550;12.132;2023-11-21T03:49:09;1191.30;;;999.90;;
24096;SDS011;12275;48.550;12.132;2023-11-21T03:51:36;1202.45;;;999.90;;
24096;SDS011;12275;48.550;12.132;2023-11-21T03:54:02;1207.93;;;999.90;;
24096;SDS011;12275;48.550;12.132;2023-11-21T03:56:28;1209.78;;;999.90;;
24096;SDS011;12275;48.550;12.132;2023-11-21T03:58:55;1212.27;;;999.90;;
24096;SDS011;12275;48.550;12.132;2023-11-21T04:01:24;1206.77;;;999.90;;
24096;SDS011;12275;48.550;12.132;2023-11-21T04:03:50;1212.53;;;999.90;;
24096;SDS011;12275;48.550;12.132;2023-11-21T04:06:17;1217.00;;;999.90;;
24096;SDS011;12275;48.550;12.132;2023-11-21T04:08:44;1212.43;;;999.90;;
24096;SDS011;12275;48.550;12.132;2023-11-21T04:11:10;1219.95;;;999.90;;
24096;SDS011;12275;48.550;12.132;2023-11-21T04:13:40;1220.13;;;999.90;;
24096;SDS011;12275;48.550;12.132;2023-11-21T04:16:07;1207.35;;;999.90;;
24096;SDS011;12275;48.550;12.132;2023-11-21T04:18:35;1212.72;;;999.90;;
24096;SDS011;12275;48.550;12.132;2023-11-21T04:21:01;1201.32;;;999.90;;
24096;SDS011;12275;48.550;12.132;2023-11-21T04:23:28;1203.20;;;999.90;;
24096;SDS011;12275;48.550;12.132;2023-11-21T04:25:54;1211.13;;;999.90;;
24096;SDS011;12275;48.550;12.132;2023-11-21T04:28:22;1206.05;;;999.90;;
24096;SDS011;12275;48.550;12.132;2023-11-21T04:30:48;1204.07;;;999.90;;
24096;SDS011;12275;48.550;12.132;2023-11-21T04:33:14;1196.03;;;999.90;;
24096;SDS011;12275;48.550;12.132;2023-11-21T04:35:40;1213.90;;;999.90;;
24096;SDS011;12275;48.550;12.132;2023-11-21T04:38:06;1207.70;;;999.90;;
24096;SDS011;12275;48.550;12.132;2023-11-21T04:40:32;1209.55;;;999.90;;
24096;SDS011;12275;48.550;12.132;2023-11-21T04:42:57;1213.50;;;999.90;;
24096;SDS011;12275;48.550;12.132;2023-11-21T04:45:23;1212.38;;;999.90;;
24096;SDS011;12275;48.550;12.132;2023-11-21T04:47:50;1216.10;;;999.90;;
24096;SDS011;12275;48.550;12.132;2023-11-21T04:50:17;1210.90;;;999.90;;
24096;SDS011;12275;48.550;12.132;2023-11-21T04:52:44;1208.03;;;999.90;;
24096;SDS011;12275;48.550;12.132;2023-11-21T04:55:10;1211.93;;;999.90;;
24096;SDS011;12275;48.550;12.132;2023-11-21T04:57:36;1209.70;;;999.90;;
24096;SDS011;12275;48.550;12.132;2023-11-21T05:00:03;1214.20;;;999.90;;
24096;SDS011;12275;48.550;12.132;2023-11-21T05:02:31;1215.20;;;999.90;;
24096;SDS011;12275;48.550;12.132;2023-11-21T05:04:59;1207.70;;;999.90;;
24096;SDS011;12275;48.550;12.132;2023-11-21T05:07:25;1214.95;;;999.90;;
24096;SDS011;12275;48.550;12.132;2023-11-21T05:09:54;1211.45;;;999.90;;
24096;SDS011;12275;48.550;12.132;2023-11-21T05:12:21;1212.95;;;999.90;;
24096;SDS011;12275;48.550;12.132;2023-11-21T05:14:50;1208.07;;;999.90;;
24096;SDS011;12275;48.550;12.132;2023-11-21T05:17:16;1223.50;;;999.90;;
24096;SDS011;12275;48.550;12.132;2023-11-21T05:19:42;1208.22;;;999.90;;
24096;SDS011;12275;48.550;12.132;2023-11-21T05:22:11;993.10;;;908.20;;
24096;SDS011;12275;48.550;12.132;2023-11-21T05:24:37;1089.78;;;999.90;;
24096;SDS011;12275;48.550;12.132;2023-11-21T05:27:04;1082.90;;;994.88;;
24096;SDS011;12275;48.550;12.132;2023-11-21T05:29:30;1103.60;;;999.90;;
24096;SDS011;12275;48.550;12.132;2023-11-21T05:31:56;1085.28;;;998.03;;
24096;SDS011;12275;48.550;12.132;2023-11-21T05:34:22;1145.55;;;999.90;;
24096;SDS011;12275;48.550;12.132;2023-11-21T05:36:49;1115.22;;;999.90;;
24096;SDS011;12275;48.550;12.132;2023-11-21T05:39:15;1119.93;;;999.90;;
24096;SDS011;12275;48.550;12.132;2023-11-21T05:41:42;1103.63;;;999.90;;
24096;SDS011;12275;48.550;12.132;2023-11-21T05:44:08;1108.45;;;999.90;;
24096;SDS011;12275;48.550;12.132;2023-11-21T05:46:34;1117.72;;;999.90;;
24096;SDS011;12275;48.550;12.132;2023-11-21T05:49:00;1108.82;;;999.90;;
24096;SDS011;12275;48.550;12.132;2023-11-21T05:51:26;1122.97;;;999.90;;
24096;SDS011;12275;48.550;12.132;2023-11-21T05:53:52;1141.38;;;999.90;;
24096;SDS011;12275;48.550;12.132;2023-11-21T05:56:19;1132.93;;;999.90;;
24096;SDS011;12275;48.550;12.132;2023-11-21T05:58:45;1117.32;;;999.90;;
24096;SDS011;12275;48.550;12.132;2023-11-21T06:01:11;1119.38;;;999.90;;
24096;SDS011;12275;48.550;12.132;2023-11-21T06:03:38;1027.07;;;940.60;;
24096;SDS011;12275;48.550;12.132;2023-11-21T06:06:04;1134.50;;;999.90;;
24096;SDS011;12275;48.550;12.132;2023-11-21T06:08:30;1112.30;;;999.90;;
24096;SDS011;12275;48.550;12.132;2023-11-21T06:10:56;1084.37;;;998.40;;
24096;SDS011;12275;48.550;12.132;2023-11-21T06:13:22;1087.77;;;999.90;;
24096;SDS011;12275;48.550;12.132;2023-11-21T06:15:50;1073.63;;;986.72;;
24096;SDS011;12275;48.550;12.132;2023-11-21T06:18:16;1094.03;;;999.90;;
24096;SDS011;12275;48.550;12.132;2023-11-21T06:20:44;1125.37;;;999.90;;
24096;SDS011;12275;48.550;12.132;2023-11-21T06:23:10;1132.32;;;999.90;;
24096;SDS011;12275;48.550;12.132;2023-11-21T06:25:36;1125.10;;;999.90;;
24096;SDS011;12275;48.550;12.132;2023-11-21T06:28:03;1135.32;;;999.90;;
24096;SDS011;12275;48.550;12.132;2023-11-21T06:30:29;1115.93;;;999.90;;
24096;SDS011;12275;48.550;12.132;2023-11-21T06:32:55;1124.45;;;999.90;;
24096;SDS011;12275;48.550;12.132;2023-11-21T06:35:21;1109.15;;;999.90;;
24096;SDS011;12275;48.550;12.132;2023-11-21T06:37:47;1127.93;;;999.90;;
24096;SDS011;12275;48.550;12.132;2023-11-21T06:40:13;1112.75;;;999.90;;
24096;SDS011;12275;48.550;12.132;2023-11-21T06:42:45;1126.53;;;999.90;;
24096;SDS011;12275;48.550;12.132;2023-11-21T06:45:12;1127.40;;;999.90;;
24096;SDS011;12275;48.550;12.132;2023-11-21T06:47:38;1136.70;;;999.90;;
24096;SDS011;12275;48.550;12.132;2023-11-21T06:50:04;1120.50;;;999.90;;
24096;SDS011;12275;48.550;12.132;2023-11-21T06:52:32;1110.27;;;999.90;;
24096;SDS011;12275;48.550;12.132;2023-11-21T06:54:58;1116.93;;;999.90;;
24096;SDS011;12275;48.550;12.132;2023-11-21T06:57:24;1120.70;;;999.90;;
24096;SDS011;12275;48.550;12.132;2023-11-21T06:59:50;1137.80;;;999.90;;
24096;SDS011;12275;48.550;12.132;2023-11-21T07:02:16;1112.45;;;999.90;;
24096;SDS011;12275;48.550;12.132;2023-11-21T07:04:44;1142.25;;;999.90;;
24096;SDS011;12275;48.550;12.132;2023-11-21T07:07:10;1111.03;;;999.90;;
24096;SDS011;12275;48.550;12.132;2023-11-21T07:09:36;1118.15;;;999.90;;
24096;SDS011;12275;48.550;12.132;2023-11-21T07:12:02;1099.93;;;999.90;;
24096;SDS011;12275;48.550;12.132;2023-11-21T07:14:31;1142.43;;;999.90;;
24096;SDS011;12275;48.550;12.132;2023-11-21T07:16:57;1122.93;;;999.90;;
24096;SDS011;12275;48.550;12.132;2023-11-21T07:19:23;1123.40;;;999.90;;
24096;SDS011;12275;48.550;12.132;2023-11-21T07:21:49;1075.40;;;987.88;;
24096;SDS011;12275;48.550;12.132;2023-11-21T07:24:16;1096.22;;;999.90;;
24096;SDS011;12275;48.550;12.132;2023-11-21T07:26:42;1092.72;;;999.90;;
24096;SDS011;12275;48.550;12.132;2023-11-21T07:29:08;1082.72;;;995.28;;
24096;SDS011;12275;48.550;12.132;2023-11-21T07:31:34;1109.68;;;999.90;;
24096;SDS011;12275;48.550;12.132;2023-11-21T07:34:00;1118.10;;;999.90;;
24096;SDS011;12275;48.550;12.132;2023-11-21T07:36:26;1091.70;;;999.90;;
24096;SDS011;12275;48.550;12.132;2023-11-21T07:38:52;1106.77;;;999.90;;
24096;SDS011;12275;48.550;12.132;2023-11-21T07:41:19;1104.45;;;999.90;;
24096;SDS011;12275;48.550;12.132;2023-11-21T07:43:45;1099.73;;;999.90;;
24096;SDS011;12275;48.550;12.132;2023-11-21T07:46:12;1065.85;;;979.20;;
24096;SDS011;12275;48.550;12.132;2023-11-21T07:48:38;1121.22;;;999.90;;
24096;SDS011;12275;48.550;12.132;2023-11-21T07:51:06;1103.25;;;999.90;;
24096;SDS011;12275;48.550;12.132;2023-11-21T07:53:32;1122.75;;;999.90;;
24096;SDS011;12275;48.550;12.132;2023-11-21T07:55:58;1116.07;;;999.90;;
24096;SDS011;12275;48.550;12.132;2023-11-21T07:58:24;1098.80;;;999.90;;
24096;SDS011;12275;48.550;12.132;2023-11-21T08:00:50;1119.03;;;999.90;;
24096;SDS011;12275;48.550;12.132;2023-11-21T08:03:17;1112.40;;;999.90;;
24096;SDS011;12275;48.550;12.132;2023-11-21T08:05:42;1095.40;;;999.90;;
24096;SDS011;12275;48.550;12.132;2023-11-21T08:08:10;1112.40;;;999.90;;
24096;SDS011;12275;48.550;12.132;2023-11-21T08:10:36;1105.97;;;999.90;;
24096;SDS011;12275;48.550;12.132;2023-11-21T08:13:03;1098.65;;;999.90;;
24096;SDS011;12275;48.550;12.132;2023-11-21T08:15:30;1097.15;;;999.90;;
24096;SDS011;12275;48.550;12.132;2023-11-21T08:17:59;1056.28;;;970.55;;
24096;SDS011;12275;48.550;12.132;2023-11-21T08:20:25;1077.80;;;990.90;;
24096;SDS011;12275;48.550;12.132;2023-11-21T08:22:51;1084.63;;;997.47;;
24096;SDS011;12275;48.550;12.132;2023-11-21T08:25:17;1065.50;;;979.17;;
24096;SDS011;12275;48.550;12.132;2023-11-21T08:27:45;1095.15;;;999.90;;
24096;SDS011;12275;48.550;12.132;2023-11-21T08:30:11;1117.45;;;999.90;;
24096;SDS011;12275;48.550;12.132;2023-11-21T08:32:39;1137.00;;;999.90;;
24096;SDS011;12275;48.550;12.132;2023-11-21T08:35:06;1091.90;;;999.90;;
24096;SDS011;12275;48.550;12.132;2023-11-21T08:37:33;1076.93;;;990.00;;
24096;SDS011;12275;48.550;12.132;2023-11-21T08:40:02;1060.22;;;974.30;;
24096;SDS011;12275;48.550;12.132;2023-11-21T08:42:28;1034.72;;;948.97;;
24096;SDS011;12275;48.550;12.132;2023-11-21T08:44:55;1097.03;;;999.90;;
24096;SDS011;12275;48.550;12.132;2023-11-21T08:47:23;1060.28;;;973.75;;
24096;SDS011;12275;48.550;12.132;2023-11-21T08:49:52;1094.03;;;999.90;;
24096;SDS011;12275;48.550;12.132;2023-11-21T08:52:18;1048.20;;;962.75;;
24096;SDS011;12275;48.550;12.132;2023-11-21T08:54:48;1070.53;;;983.33;;
24096;SDS011;12275;48.550;12.132;2023-11-21T08:57:20;1050.15;;;963.75;;
24096;SDS011;12275;48.550;12.132;2023-11-21T08:59:46;1054.80;;;968.28;;
24096;SDS011;12275;48.550;12.132;2023-11-21T09:02:12;1028.78;;;944.22;;
24096;SDS011;12275;48.550;12.132;2023-11-21T09:04:38;1038.93;;;953.45;;
24096;SDS011;12275;48.550;12.132;2023-11-21T09:07:04;1050.93;;;965.08;;
24096;SDS011;12275;48.550;12.132;2023-11-21T09:09:30;1047.80;;;961.90;;
24096;SDS011;12275;48.550;12.132;2023-11-21T09:11:56;1041.90;;;956.40;;
24096;SDS011;12275;48.550;12.132;2023-11-21T09:14:22;1031.72;;;946.38;;
24096;SDS011;12275;48.550;12.132;2023-11-21T09:16:48;1054.63;;;968.47;;
24096;SDS011;12275;48.550;12.132;2023-11-21T09:19:15;1063.03;;;976.60;;
24096;SDS011;12275;48.550;12.132;2023-11-21T09:21:41;1042.43;;;956.78;;
24096;SDS011;12275;48.550;12.132;2023-11-21T09:24:07;1026.70;;;942.28;;
24096;SDS011;12275;48.550;12.132;2023-11-21T09:26:34;1060.90;;;974.28;;
24096;SDS011;12275;48.550;12.132;2023-11-21T09:29:00;1051.18;;;965.22;;
24096;SDS011;12275;48.550;12.132;2023-11-21T09:31:27;1058.00;;;971.42;;
24096;SDS011;12275;48.550;12.132;2023-11-21T09:33:53;1015.55;;;931.00;;
24096;SDS011;12275;48.550;12.132;2023-11-21T09:36:19;985.92;;;903.10;;
24096;SDS011;12275;48.550;12.132;2023-11-21T09:38:48;985.25;;;902.50;;
24096;SDS011;12275;48.550;12.132;2023-11-21T09:41:23;993.30;;;910.08;;
24096;SDS011;12275;48.550;12.132;2023-11-21T09:43:52;961.25;;;879.83;;
24096;SDS011;12275;48.550;12.132;2023-11-21T09:46:20;981.83;;;899.40;;
24096;SDS011;12275;48.550;12.132;2023-11-21T09:48:49;986.20;;;903.07;;
24096;SDS011;12275;48.550;12.132;2023-11-21T09:51:18;995.63;;;912.42;;
24096;SDS011;12275;48.550;12.132;2023-11-21T09:53:46;975.90;;;893.28;;
24096;SDS011;12275;48.550;12.132;2023-11-21T09:56:14;1000.55;;;916.80;;
24096;SDS011;12275;48.550;12.132;2023-11-21T09:58:44;994.33;;;910.83;;
24096;SDS011;12275;48.550;12.132;2023-11-21T10:01:10;1016.17;;;931.88;;
24096;SDS011;12275;48.550;12.132;2023-11-21T10:03:37;990.58;;;907.28;;
24096;SDS011;12275;48.550;12.132;2023-11-21T10:06:04;993.85;;;910.40;;
24096;SDS011;12275;48.550;12.132;2023-11-21T10:08:30;1023.97;;;938.90;;
24096;SDS011;12275;48.550;12.132;2023-11-21T10:10:58;1009.05;;;925.45;;
24096;SDS011;12275;48.550;12.132;2023-11-21T10:13:24;1006.85;;;922.50;;
24096;SDS011;12275;48.550;12.132;2023-11-21T10:15:55;1036.45;;;951.08;;
24096;SDS011;12275;48.550;12.132;2023-11-21T10:18:23;1006.40;;;922.38;;
24096;SDS011;12275;48.550;12.132;2023-11-21T10:20:51;991.58;;;908.35;;
24096;SDS011;12275;48.550;12.132;2023-11-21T10:23:21;1025.45;;;940.75;;
24096;SDS011;12275;48.550;12.132;2023-11-21T10:25:47;1006.25;;;922.03;;
24096;SDS011;12275;48.550;12.132;2023-11-21T10:28:14;1017.13;;;932.42;;
24096;SDS011;12275;48.550;12.132;2023-11-21T10:30:40;993.75;;;910.60;;
24096;SDS011;12275;48.550;12.132;2023-11-21T10:33:07;986.80;;;903.85;;
24096;SDS011;12275;48.550;12.132;2023-11-21T10:35:42;968.55;;;886.53;;
24096;SDS011;12275;48.550;12.132;2023-11-21T10:38:12;974.92;;;892.17;;
24096;SDS011;12275;48.550;12.132;2023-11-21T10:40:39;981.95;;;898.92;;
24096;SDS011;12275;48.550;12.132;2023-11-21T10:43:08;986.22;;;902.55;;
24096;SDS011;12275;48.550;12.132;2023-11-21T10:45:35;978.63;;;895.83;;
24096;SDS011;12275;48.550;12.132;2023-11-21T10:48:04;991.90;;;908.33;;
24096;SDS011;12275;48.550;12.132;2023-11-21T10:50:32;959.75;;;877.95;;
24096;SDS011;12275;48.550;12.132;2023-11-21T10:53:00;976.03;;;893.58;;
24096;SDS011;12275;48.550;12.132;2023-11-21T10:55:27;977.17;;;894.33;;
24096;SDS011;12275;48.550;12.132;2023-11-21T10:57:53;964.30;;;882.33;;
24096;SDS011;12275;48.550;12.132;2023-11-21T11:00:20;986.85;;;903.75;;
24096;SDS011;12275;48.550;12.132;2023-11-21T11:02:50;1007.90;;;924.38;;
24096;SDS011;12275;48.550;12.132;2023-11-21T11:05:19;985.92;;;902.72;;
24096;SDS011;12275;48.550;12.132;2023-11-21T11:07:45;942.53;;;861.85;;
24096;SDS011;12275;48.550;12.132;2023-11-21T11:10:14;961.63;;;879.90;;
24096;SDS011;12275;48.550;12.132;2023-11-21T11:12:40;942.50;;;861.45;;
24096;SDS011;12275;48.550;12.132;2023-11-21T11:15:07;936.33;;;855.45;;
24096;SDS011;12275;48.550;12.132;2023-11-21T11:17:37;932.47;;;851.83;;
24096;SDS011;12275;48.550;12.132;2023-11-21T11:20:04;915.90;;;836.03;;
24096;SDS011;12275;48.550;12.132;2023-11-21T11:22:36;906.67;;;827.47;;
24096;SDS011;12275;48.550;12.132;2023-11-21T11:32:53;919.58;;;839.20;;
24096;SDS011;12275;48.550;12.132;2023-11-21T11:35:26;925.80;;;845.47;;
24096;SDS011;12275;48.550;12.132;2023-11-21T11:37:55;909.08;;;829.50;;
24096;SDS011;12275;48.550;12.132;2023-11-21T11:40:21;838.72;;;762.53;;
24096;SDS011;12275;48.550;12.132;2023-11-21T11:42:55;850.20;;;774.10;;
24096;SDS011;12275;48.550;12.132;2023-11-21T11:45:22;862.53;;;785.33;;
24096;SDS011;12275;48.550;12.132;2023-11-21T11:47:56;853.07;;;776.07;;
24096;SDS011;12275;48.550;12.132;2023-11-21T11:50:22;844.35;;;768.15;;
24096;SDS011;12275;48.550;12.132;2023-11-21T11:52:50;856.28;;;779.30;;
24096;SDS011;12275;48.550;12.132;2023-11-21T11:55:18;852.17;;;775.57;;
24096;SDS011;12275;48.550;12.132;2023-11-21T11:57:45;888.13;;;809.67;;
24096;SDS011;12275;48.550;12.132;2023-11-21T12:00:20;875.85;;;798.25;;
24096;SDS011;12275;48.550;12.132;2023-11-21T12:02:59;873.08;;;795.25;;
24096;SDS011;12275;48.550;12.132;2023-11-21T12:05:28;875.33;;;797.10;;
24096;SDS011;12275;48.550;12.132;2023-11-21T12:07:59;894.23;;;815.83;;
24096;SDS011;12275;48.550;12.132;2023-11-21T12:10:29;874.72;;;797.00;;
24096;SDS011;12275;48.550;12.132;2023-11-21T12:12:56;880.22;;;802.20;;
24096;SDS011;12275;48.550;12.132;2023-11-21T12:15:23;849.83;;;773.13;;
24096;SDS011;12275;48.550;12.132;2023-11-21T12:17:49;842.27;;;765.70;;
24096;SDS011;12275;48.550;12.132;2023-11-21T12:20:16;882.60;;;804.22;;
24096;SDS011;12275;48.550;12.132;2023-11-21T12:22:44;864.85;;;787.72;;
24096;SDS011;12275;48.550;12.132;2023-11-21T12:25:12;888.47;;;809.97;;
24096;SDS011;12275;48.550;12.132;2023-11-21T12:27:41;894.40;;;815.75;;
24096;SDS011;12275;48.550;12.132;2023-11-21T12:30:07;861.50;;;784.23;;
24096;SDS011;12275;48.550;12.132;2023-11-21T12:32:38;870.67;;;792.90;;
24096;SDS011;12275;48.550;12.132;2023-11-21T12:35:05;848.05;;;771.67;;
24096;SDS011;12275;48.550;12.132;2023-11-21T12:37:31;884.58;;;806.30;;
24096;SDS011;12275;48.550;12.132;2023-11-21T12:39:57;902.97;;;823.65;;
24096;SDS011;12275;48.550;12.132;2023-11-21T12:42:24;905.23;;;826.00;;
24096;SDS011;12275;48.550;12.132;2023-11-21T12:47:46;944.20;;;863.43;;
24096;SDS011;12275;48.550;12.132;2023-11-21T12:50:12;922.53;;;842.78;;
24096;SDS011;12275;48.550;12.132;2023-11-21T12:52:44;931.33;;;850.83;;
24096;SDS011;12275;48.550;12.132;2023-11-21T12:55:19;906.97;;;827.78;;
24096;SDS011;12275;48.550;12.132;2023-11-21T12:57:50;904.42;;;824.85;;
24096;SDS011;12275;48.550;12.132;2023-11-21T13:03:08;894.28;;;815.25;;
24096;SDS011;12275;48.550;12.132;2023-11-21T13:05:38;912.70;;;833.33;;
24096;SDS011;12275;48.550;12.132;2023-11-21T13:08:05;914.25;;;835.00;;
24096;SDS011;12275;48.550;12.132;2023-11-21T13:10:38;909.88;;;830.50;;
24096;SDS011;12275;48.550;12.132;2023-11-21T13:13:05;883.88;;;805.80;;
24096;SDS011;12275;48.550;12.132;2023-11-21T13:15:35;874.00;;;796.40;;
24096;SDS011;12275;48.550;12.132;2023-11-21T13:18:05;873.78;;;796.28;;
24096;SDS011;12275;48.550;12.132;2023-11-21T13:20:32;870.22;;;792.92;;
24096;SDS011;12275;48.550;12.132;2023-11-21T13:22:59;885.77;;;807.87;;
24096;SDS011;12275;48.550;12.132;2023-11-21T13:25:27;854.65;;;778.00;;
24096;SDS011;12275;48.550;12.132;2023-11-21T13:27:56;901.15;;;822.28;;
24096;SDS011;12275;48.550;12.132;2023-11-21T13:30:22;871.43;;;794.03;;
24096;SDS011;12275;48.550;12.132;2023-11-21T13:32:52;872.63;;;794.95;;
24096;SDS011;12275;48.550;12.132;2023-11-21T13:35:22;893.70;;;815.03;;
24096;SDS011;12275;48.550;12.132;2023-11-21T13:40:35;886.92;;;808.50;;
24096;SDS011;12275;48.550;12.132;2023-11-21T13:43:11;882.15;;;804.25;;
24096;SDS011;12275;48.550;12.132;2023-11-21T13:45:37;893.83;;;814.88;;
24096;SDS011;12275;48.550;12.132;2023-11-21T13:48:07;880.58;;;802.55;;
24096;SDS011;12275;48.550;12.132;2023-11-21T13:50:42;898.13;;;819.28;;
24096;SDS011;12275;48.550;12.132;2023-11-21T13:53:13;874.17;;;796.53;;
24096;SDS011;12275;48.550;12.132;2023-11-21T13:55:47;886.88;;;808.97;;
24096;SDS011;12275;48.550;12.132;2023-11-21T13:58:14;928.30;;;847.97;;
24096;SDS011;12275;48.550;12.132;2023-11-21T14:00:47;906.05;;;826.42;;
24096;SDS011;12275;48.550;12.132;2023-11-21T14:03:20;908.03;;;828.85;;
24096;SDS011;12275;48.550;12.132;2023-11-21T14:05:50;909.10;;;829.90;;
24096;SDS011;12275;48.550;12.132;2023-11-21T14:08:22;904.67;;;825.50;;
24096;SDS011;12275;48.550;12.132;2023-11-21T14:10:53;897.93;;;819.57;;
24096;SDS011;12275;48.550;12.132;2023-11-21T14:13:23;913.37;;;833.90;;
24096;SDS011;12275;48.550;12.132;2023-11-21T14:15:49;929.50;;;849.17;;
24096;SDS011;12275;48.550;12.132;2023-11-21T14:18:27;919.30;;;839.65;;
24096;SDS011;12275;48.550;12.132;2023-11-21T14:21:03;902.35;;;823.67;;
24096;SDS011;12275;48.550;12.132;2023-11-21T14:23:30;915.30;;;836.13;;
24096;SDS011;12275;48.550;12.132;2023-11-21T14:25:58;915.85;;;836.25;;
24096;SDS011;12275;48.550;12.132;2023-11-21T14:28:26;923.22;;;843.22;;
24096;SDS011;12275;48.550;12.132;2023-11-21T14:30:52;922.10;;;842.38;;
24096;SDS011;12275;48.550;12.132;2023-11-21T14:33:18;920.35;;;840.85;;